sensor_id;sensor_type;location;lat;lon;timestamp;P1;durP1;ratioP1;P2;durP2;ratioP2
24467;SDS011;12634;50.852;5.676;2023-07-29T00:02:03;5.35;;;2.33;;
24467;SDS011;12634;50.852;5.676;2023-07-29T00:04:31;7.63;;;2.45;;
24467;SDS011;12634;50.852;5.676;2023-07-29T00:06:58;9.32;;;2.42;;
24467;SDS011;12634;50.852;5.676;2023-07-29T00:09:27;7.72;;;2.58;;
24467;SDS011;12634;50.852;5.676;2023-07-29T00:11:54;5.22;;;2.05;;
24467;SDS011;12634;50.852;5.676;2023-07-29T00:14:21;4.03;;;1.98;;
24467;SDS011;12634;50.852;5.676;2023-07-29T00:16:48;6.07;;;2.10;;
24467;SDS011;12634;50.852;5.676;2023-07-29T00:19:15;4.35;;;2.20;;
24467;SDS011;12634;50.852;5.676;2023-07-29T00:21:42;4.03;;;2.13;;
24467;SDS011;12634;50.852;5.676;2023-07-29T00:24:10;6.35;;;2.60;;
24467;SDS011;12634;50.852;5.676;2023-07-29T00:26:38;4.72;;;2.50;;
24467;SDS011;12634;50.852;5.676;2023-07-29T00:29:05;5.95;;;2.35;;
24467;SDS011;12634;50.852;5.676;2023-07-29T00:31:32;5.68;;;2.53;;
24467;SDS011;12634;50.852;5.676;2023-07-29T00:34:00;6.03;;;2.65;;
24467;SDS011;12634;50.852;5.676;2023-07-29T00:36:27;6.70;;;2.10;;
24467;SDS011;12634;50.852;5.676;2023-07-29T00:38:54;4.82;;;2.08;;
24467;SDS011;12634;50.852;5.676;2023-07-29T00:41:22;3.70;;;2.05;;
24467;SDS011;12634;50.852;5.676;2023-07-29T00:43:51;3.33;;;1.92;;
24467;SDS011;12634;50.852;5.676;2023-07-29T00:46:18;5.13;;;2.13;;
24467;SDS011;12634;50.852;5.676;2023-07-29T00:48:46;8.35;;;2.08;;
24467;SDS011;12634;50.852;5.676;2023-07-29T00:51:13;4.90;;;2.08;;
24467;SDS011;12634;50.852;5.676;2023-07-29T00:53:40;7.70;;;1.95;;
24467;SDS011;12634;50.852;5.676;2023-07-29T00:56:08;5.13;;;1.92;;
24467;SDS011;12634;50.852;5.676;2023-07-29T00:58:35;2.97;;;1.50;;
24467;SDS011;12634;50.852;5.676;2023-07-29T01:01:04;7.68;;;1.88;;
24467;SDS011;12634;50.852;5.676;2023-07-29T01:03:31;6.60;;;2.33;;
24467;SDS011;12634;50.852;5.676;2023-07-29T01:06:01;10.30;;;1.90;;
24467;SDS011;12634;50.852;5.676;2023-07-29T01:08:42;4.53;;;1.60;;
24467;SDS011;12634;50.852;5.676;2023-07-29T01:11:18;3.95;;;1.60;;
24467;SDS011;12634;50.852;5.676;2023-07-29T01:13:56;5.85;;;1.90;;
24467;SDS011;12634;50.852;5.676;2023-07-29T01:16:30;5.38;;;1.63;;
24467;SDS011;12634;50.852;5.676;2023-07-29T01:19:05;5.90;;;1.70;;
24467;SDS011;12634;50.852;5.676;2023-07-29T01:21:33;5.65;;;2.35;;
24467;SDS011;12634;50.852;5.676;2023-07-29T01:24:03;3.70;;;1.52;;
24467;SDS011;12634;50.852;5.676;2023-07-29T01:26:30;4.93;;;1.77;;
24467;SDS011;12634;50.852;5.676;2023-07-29T01:28:58;6.38;;;1.58;;
24467;SDS011;12634;50.852;5.676;2023-07-29T01:31:27;4.25;;;1.30;;
24467;SDS011;12634;50.852;5.676;2023-07-29T01:33:59;7.70;;;2.05;;
24467;SDS011;12634;50.852;5.676;2023-07-29T01:36:32;6.20;;;1.95;;
24467;SDS011;12634;50.852;5.676;2023-07-29T01:39:05;7.95;;;2.67;;
24467;SDS011;12634;50.852;5.676;2023-07-29T01:41:33;3.83;;;2.50;;
24467;SDS011;12634;50.852;5.676;2023-07-29T01:44:02;9.15;;;2.38;;
24467;SDS011;12634;50.852;5.676;2023-07-29T01:46:31;5.65;;;2.42;;
24467;SDS011;12634;50.852;5.676;2023-07-29T01:48:59;3.10;;;1.80;;
24467;SDS011;12634;50.852;5.676;2023-07-29T01:51:26;6.85;;;1.83;;
24467;SDS011;12634;50.852;5.676;2023-07-29T01:53:54;6.13;;;1.85;;
24467;SDS011;12634;50.852;5.676;2023-07-29T01:56:23;4.40;;;1.77;;
24467;SDS011;12634;50.852;5.676;2023-07-29T01:58:50;5.00;;;1.70;;
24467;SDS011;12634;50.852;5.676;2023-07-29T02:01:17;7.18;;;1.90;;
24467;SDS011;12634;50.852;5.676;2023-07-29T02:03:44;5.25;;;1.90;;
24467;SDS011;12634;50.852;5.676;2023-07-29T02:06:11;12.13;;;1.80;;
24467;SDS011;12634;50.852;5.676;2023-07-29T02:08:38;6.03;;;1.73;;
24467;SDS011;12634;50.852;5.676;2023-07-29T02:11:06;5.25;;;1.92;;
24467;SDS011;12634;50.852;5.676;2023-07-29T02:13:35;2.25;;;1.45;;
24467;SDS011;12634;50.852;5.676;2023-07-29T02:16:02;3.45;;;1.60;;
24467;SDS011;12634;50.852;5.676;2023-07-29T02:18:29;4.00;;;1.52;;
24467;SDS011;12634;50.852;5.676;2023-07-29T02:20:56;3.38;;;1.70;;
24467;SDS011;12634;50.852;5.676;2023-07-29T02:23:24;5.20;;;1.92;;
24467;SDS011;12634;50.852;5.676;2023-07-29T02:25:51;4.07;;;1.67;;
24467;SDS011;12634;50.852;5.676;2023-07-29T02:28:18;4.75;;;2.00;;
24467;SDS011;12634;50.852;5.676;2023-07-29T02:30:47;7.82;;;1.80;;
24467;SDS011;12634;50.852;5.676;2023-07-29T02:36:07;4.57;;;2.15;;
24467;SDS011;12634;50.852;5.676;2023-07-29T02:38:34;4.07;;;2.15;;
24467;SDS011;12634;50.852;5.676;2023-07-29T02:41:01;5.35;;;2.88;;
24467;SDS011;12634;50.852;5.676;2023-07-29T02:43:29;3.85;;;2.42;;
24467;SDS011;12634;50.852;5.676;2023-07-29T02:45:57;7.07;;;2.83;;
24467;SDS011;12634;50.852;5.676;2023-07-29T02:48:24;5.57;;;2.90;;
24467;SDS011;12634;50.852;5.676;2023-07-29T02:50:52;4.68;;;3.50;;
24467;SDS011;12634;50.852;5.676;2023-07-29T02:53:19;3.67;;;3.00;;
24467;SDS011;12634;50.852;5.676;2023-07-29T02:55:46;6.05;;;3.45;;
24467;SDS011;12634;50.852;5.676;2023-07-29T02:58:13;6.38;;;3.85;;
24467;SDS011;12634;50.852;5.676;2023-07-29T03:00:40;6.03;;;3.50;;
24467;SDS011;12634;50.852;5.676;2023-07-29T03:03:10;5.75;;;3.30;;
24467;SDS011;12634;50.852;5.676;2023-07-29T03:05:37;5.38;;;3.90;;
24467;SDS011;12634;50.852;5.676;2023-07-29T03:08:04;5.82;;;4.00;;
24467;SDS011;12634;50.852;5.676;2023-07-29T03:10:31;6.65;;;3.80;;
24467;SDS011;12634;50.852;5.676;2023-07-29T03:13:00;7.63;;;3.00;;
24467;SDS011;12634;50.852;5.676;2023-07-29T03:15:28;4.63;;;2.80;;
24467;SDS011;12634;50.852;5.676;2023-07-29T03:17:55;4.50;;;3.17;;
24467;SDS011;12634;50.852;5.676;2023-07-29T03:20:23;5.20;;;3.17;;
24467;SDS011;12634;50.852;5.676;2023-07-29T03:22:52;4.43;;;2.30;;
24467;SDS011;12634;50.852;5.676;2023-07-29T03:25:19;4.72;;;2.45;;
24467;SDS011;12634;50.852;5.676;2023-07-29T03:27:46;4.00;;;2.00;;
24467;SDS011;12634;50.852;5.676;2023-07-29T03:30:14;3.53;;;1.80;;
24467;SDS011;12634;50.852;5.676;2023-07-29T03:32:43;2.67;;;1.52;;
24467;SDS011;12634;50.852;5.676;2023-07-29T03:35:11;3.65;;;1.73;;
24467;SDS011;12634;50.852;5.676;2023-07-29T03:37:40;4.43;;;1.73;;
24467;SDS011;12634;50.852;5.676;2023-07-29T03:40:07;6.88;;;3.22;;
24467;SDS011;12634;50.852;5.676;2023-07-29T03:42:35;3.70;;;2.85;;
24467;SDS011;12634;50.852;5.676;2023-07-29T03:45:02;4.35;;;3.00;;
24467;SDS011;12634;50.852;5.676;2023-07-29T03:47:30;6.18;;;3.65;;
24467;SDS011;12634;50.852;5.676;2023-07-29T03:49:57;4.68;;;3.40;;
24467;SDS011;12634;50.852;5.676;2023-07-29T03:52:24;4.82;;;2.80;;
24467;SDS011;12634;50.852;5.676;2023-07-29T03:54:53;4.10;;;2.22;;
24467;SDS011;12634;50.852;5.676;2023-07-29T03:57:20;4.25;;;2.50;;
24467;SDS011;12634;50.852;5.676;2023-07-29T03:59:47;3.42;;;2.28;;
24467;SDS011;12634;50.852;5.676;2023-07-29T04:02:14;3.80;;;2.53;;
24467;SDS011;12634;50.852;5.676;2023-07-29T04:04:41;5.60;;;2.60;;
24467;SDS011;12634;50.852;5.676;2023-07-29T04:07:12;5.80;;;3.00;;
24467;SDS011;12634;50.852;5.676;2023-07-29T04:09:39;6.13;;;3.50;;
24467;SDS011;12634;50.852;5.676;2023-07-29T04:12:09;4.75;;;3.42;;
24467;SDS011;12634;50.852;5.676;2023-07-29T04:14:37;4.43;;;3.40;;
24467;SDS011;12634;50.852;5.676;2023-07-29T04:17:04;4.90;;;2.63;;
24467;SDS011;12634;50.852;5.676;2023-07-29T04:19:31;5.07;;;2.03;;
24467;SDS011;12634;50.852;5.676;2023-07-29T04:21:59;5.15;;;2.33;;
24467;SDS011;12634;50.852;5.676;2023-07-29T04:24:26;2.90;;;1.63;;
24467;SDS011;12634;50.852;5.676;2023-07-29T04:26:53;1.55;;;1.30;;
24467;SDS011;12634;50.852;5.676;2023-07-29T04:29:21;3.78;;;1.55;;
24467;SDS011;12634;50.852;5.676;2023-07-29T04:31:49;4.57;;;1.73;;
24467;SDS011;12634;50.852;5.676;2023-07-29T04:34:16;1.83;;;1.30;;
24467;SDS011;12634;50.852;5.676;2023-07-29T04:36:44;6.05;;;1.52;;
24467;SDS011;12634;50.852;5.676;2023-07-29T04:39:11;4.88;;;1.63;;
24467;SDS011;12634;50.852;5.676;2023-07-29T04:41:38;2.35;;;1.70;;
24467;SDS011;12634;50.852;5.676;2023-07-29T04:44:05;5.38;;;1.90;;
24467;SDS011;12634;50.852;5.676;2023-07-29T04:46:35;3.38;;;1.48;;
24467;SDS011;12634;50.852;5.676;2023-07-29T04:49:02;3.28;;;1.67;;
24467;SDS011;12634;50.852;5.676;2023-07-29T04:51:29;4.72;;;1.50;;
24467;SDS011;12634;50.852;5.676;2023-07-29T04:53:57;4.78;;;1.77;;
24467;SDS011;12634;50.852;5.676;2023-07-29T04:56:24;4.85;;;1.70;;
24467;SDS011;12634;50.852;5.676;2023-07-29T04:58:51;4.93;;;2.13;;
24467;SDS011;12634;50.852;5.676;2023-07-29T05:01:19;4.70;;;2.03;;
24467;SDS011;12634;50.852;5.676;2023-07-29T05:03:47;4.82;;;2.08;;
24467;SDS011;12634;50.852;5.676;2023-07-29T05:06:15;3.20;;;1.90;;
24467;SDS011;12634;50.852;5.676;2023-07-29T05:08:42;3.60;;;2.03;;
24467;SDS011;12634;50.852;5.676;2023-07-29T05:11:09;4.72;;;2.00;;
24467;SDS011;12634;50.852;5.676;2023-07-29T05:13:36;3.13;;;1.48;;
24467;SDS011;12634;50.852;5.676;2023-07-29T05:16:04;3.30;;;1.73;;
24467;SDS011;12634;50.852;5.676;2023-07-29T05:18:31;5.72;;;1.85;;
24467;SDS011;12634;50.852;5.676;2023-07-29T05:20:59;3.17;;;1.80;;
24467;SDS011;12634;50.852;5.676;2023-07-29T05:23:27;5.82;;;1.80;;
24467;SDS011;12634;50.852;5.676;2023-07-29T05:25:54;3.10;;;1.52;;
24467;SDS011;12634;50.852;5.676;2023-07-29T05:28:21;5.80;;;2.00;;
24467;SDS011;12634;50.852;5.676;2023-07-29T05:30:48;4.13;;;1.40;;
24467;SDS011;12634;50.852;5.676;2023-07-29T05:33:15;5.13;;;1.90;;
24467;SDS011;12634;50.852;5.676;2023-07-29T05:35:42;6.70;;;1.75;;
24467;SDS011;12634;50.852;5.676;2023-07-29T05:38:13;3.83;;;1.58;;
24467;SDS011;12634;50.852;5.676;2023-07-29T05:40:40;3.85;;;1.70;;
24467;SDS011;12634;50.852;5.676;2023-07-29T05:43:07;5.40;;;1.65;;
24467;SDS011;12634;50.852;5.676;2023-07-29T05:45:34;3.63;;;1.70;;
24467;SDS011;12634;50.852;5.676;2023-07-29T05:48:02;3.40;;;1.50;;
24467;SDS011;12634;50.852;5.676;2023-07-29T05:50:29;4.82;;;1.50;;
24467;SDS011;12634;50.852;5.676;2023-07-29T05:52:56;5.85;;;1.80;;
24467;SDS011;12634;50.852;5.676;2023-07-29T05:55:25;5.35;;;1.58;;
24467;SDS011;12634;50.852;5.676;2023-07-29T05:57:52;2.70;;;1.52;;
24467;SDS011;12634;50.852;5.676;2023-07-29T06:00:20;4.60;;;1.38;;
24467;SDS011;12634;50.852;5.676;2023-07-29T06:02:47;2.25;;;1.35;;
24467;SDS011;12634;50.852;5.676;2023-07-29T06:05:14;3.95;;;1.42;;
24467;SDS011;12634;50.852;5.676;2023-07-29T06:07:42;4.30;;;1.60;;
24467;SDS011;12634;50.852;5.676;2023-07-29T06:10:10;4.57;;;1.38;;
24467;SDS011;12634;50.852;5.676;2023-07-29T06:12:40;2.90;;;1.20;;
24467;SDS011;12634;50.852;5.676;2023-07-29T06:15:07;5.75;;;1.30;;
24467;SDS011;12634;50.852;5.676;2023-07-29T06:17:35;2.53;;;1.40;;
24467;SDS011;12634;50.852;5.676;2023-07-29T06:20:02;4.85;;;1.52;;
24467;SDS011;12634;50.852;5.676;2023-07-29T06:22:31;3.03;;;1.33;;
24467;SDS011;12634;50.852;5.676;2023-07-29T06:24:58;4.25;;;1.20;;
24467;SDS011;12634;50.852;5.676;2023-07-29T06:27:25;4.90;;;1.50;;
24467;SDS011;12634;50.852;5.676;2023-07-29T06:29:54;4.97;;;1.75;;
24467;SDS011;12634;50.852;5.676;2023-07-29T06:32:21;6.03;;;1.67;;
24467;SDS011;12634;50.852;5.676;2023-07-29T06:34:48;4.07;;;1.80;;
24467;SDS011;12634;50.852;5.676;2023-07-29T06:37:17;3.92;;;1.65;;
24467;SDS011;12634;50.852;5.676;2023-07-29T06:39:44;2.72;;;1.70;;
24467;SDS011;12634;50.852;5.676;2023-07-29T06:42:11;6.10;;;1.30;;
24467;SDS011;12634;50.852;5.676;2023-07-29T06:44:39;5.82;;;1.52;;
24467;SDS011;12634;50.852;5.676;2023-07-29T06:47:08;3.63;;;1.38;;
24467;SDS011;12634;50.852;5.676;2023-07-29T06:49:35;2.42;;;1.15;;
24467;SDS011;12634;50.852;5.676;2023-07-29T06:52:03;3.60;;;1.40;;
24467;SDS011;12634;50.852;5.676;2023-07-29T06:54:30;5.00;;;1.23;;
24467;SDS011;12634;50.852;5.676;2023-07-29T06:56:57;3.13;;;1.27;;
24467;SDS011;12634;50.852;5.676;2023-07-29T06:59:25;2.80;;;1.20;;
24467;SDS011;12634;50.852;5.676;2023-07-29T07:01:52;3.00;;;1.15;;
24467;SDS011;12634;50.852;5.676;2023-07-29T07:04:20;2.20;;;1.00;;
24467;SDS011;12634;50.852;5.676;2023-07-29T07:06:48;2.67;;;1.33;;
24467;SDS011;12634;50.852;5.676;2023-07-29T07:09:16;3.35;;;1.20;;
24467;SDS011;12634;50.852;5.676;2023-07-29T07:11:43;5.30;;;1.25;;
24467;SDS011;12634;50.852;5.676;2023-07-29T07:14:10;1.77;;;0.80;;
24467;SDS011;12634;50.852;5.676;2023-07-29T07:16:39;4.45;;;1.05;;
24467;SDS011;12634;50.852;5.676;2023-07-29T07:19:06;3.75;;;1.20;;
24467;SDS011;12634;50.852;5.676;2023-07-29T07:21:34;4.25;;;1.00;;
24467;SDS011;12634;50.852;5.676;2023-07-29T07:24:01;1.60;;;0.90;;
24467;SDS011;12634;50.852;5.676;2023-07-29T07:26:29;3.03;;;1.10;;
24467;SDS011;12634;50.852;5.676;2023-07-29T07:28:56;4.10;;;1.05;;
24467;SDS011;12634;50.852;5.676;2023-07-29T07:31:23;4.50;;;0.90;;
24467;SDS011;12634;50.852;5.676;2023-07-29T07:33:50;1.30;;;0.82;;
24467;SDS011;12634;50.852;5.676;2023-07-29T07:36:17;2.92;;;1.08;;
24467;SDS011;12634;50.852;5.676;2023-07-29T07:38:46;2.00;;;0.85;;
24467;SDS011;12634;50.852;5.676;2023-07-29T07:41:13;3.60;;;1.00;;
24467;SDS011;12634;50.852;5.676;2023-07-29T07:43:41;3.55;;;1.00;;
24467;SDS011;12634;50.852;5.676;2023-07-29T07:46:08;2.97;;;0.95;;
24467;SDS011;12634;50.852;5.676;2023-07-29T07:48:36;2.08;;;0.82;;
24467;SDS011;12634;50.852;5.676;2023-07-29T07:51:09;2.05;;;0.88;;
24467;SDS011;12634;50.852;5.676;2023-07-29T07:53:37;2.95;;;0.80;;
24467;SDS011;12634;50.852;5.676;2023-07-29T07:56:06;0.68;;;0.60;;
24467;SDS011;12634;50.852;5.676;2023-07-29T07:58:34;2.40;;;0.93;;
24467;SDS011;12634;50.852;5.676;2023-07-29T08:01:01;1.55;;;0.82;;
24467;SDS011;12634;50.852;5.676;2023-07-29T08:03:29;1.15;;;0.80;;
24467;SDS011;12634;50.852;5.676;2023-07-29T08:05:56;2.78;;;0.98;;
24467;SDS011;12634;50.852;5.676;2023-07-29T08:08:24;1.52;;;0.93;;
24467;SDS011;12634;50.852;5.676;2023-07-29T08:10:52;1.10;;;0.73;;
24467;SDS011;12634;50.852;5.676;2023-07-29T08:13:21;3.28;;;1.00;;
24467;SDS011;12634;50.852;5.676;2023-07-29T08:15:48;1.73;;;1.00;;
24467;SDS011;12634;50.852;5.676;2023-07-29T08:18:17;1.77;;;1.00;;
24467;SDS011;12634;50.852;5.676;2023-07-29T08:20:51;1.77;;;1.05;;
24467;SDS011;12634;50.852;5.676;2023-07-29T08:23:20;2.00;;;1.10;;
24467;SDS011;12634;50.852;5.676;2023-07-29T08:25:50;3.13;;;1.13;;
24467;SDS011;12634;50.852;5.676;2023-07-29T08:28:20;6.97;;;1.20;;
24467;SDS011;12634;50.852;5.676;2023-07-29T08:30:48;1.65;;;0.98;;
24467;SDS011;12634;50.852;5.676;2023-07-29T08:33:15;4.45;;;1.20;;
24467;SDS011;12634;50.852;5.676;2023-07-29T08:35:42;2.03;;;1.20;;
24467;SDS011;12634;50.852;5.676;2023-07-29T08:38:09;1.75;;;1.00;;
24467;SDS011;12634;50.852;5.676;2023-07-29T08:40:37;1.90;;;1.17;;
24467;SDS011;12634;50.852;5.676;2023-07-29T08:43:08;5.28;;;1.33;;
24467;SDS011;12634;50.852;5.676;2023-07-29T08:45:39;1.45;;;0.80;;
24467;SDS011;12634;50.852;5.676;2023-07-29T08:48:08;2.88;;;1.00;;
24467;SDS011;12634;50.852;5.676;2023-07-29T08:50:37;3.25;;;1.20;;
24467;SDS011;12634;50.852;5.676;2023-07-29T08:53:04;3.75;;;1.17;;
24467;SDS011;12634;50.852;5.676;2023-07-29T08:55:31;3.85;;;1.10;;
24467;SDS011;12634;50.852;5.676;2023-07-29T08:57:59;2.65;;;1.05;;
24467;SDS011;12634;50.852;5.676;2023-07-29T09:00:27;3.60;;;1.30;;
24467;SDS011;12634;50.852;5.676;2023-07-29T09:02:56;3.40;;;1.27;;
24467;SDS011;12634;50.852;5.676;2023-07-29T09:05:27;2.13;;;1.20;;
24467;SDS011;12634;50.852;5.676;2023-07-29T09:07:55;2.90;;;1.45;;
24467;SDS011;12634;50.852;5.676;2023-07-29T09:10:22;3.33;;;1.10;;
24467;SDS011;12634;50.852;5.676;2023-07-29T09:12:52;2.40;;;1.38;;
24467;SDS011;12634;50.852;5.676;2023-07-29T09:15:26;2.85;;;1.10;;
24467;SDS011;12634;50.852;5.676;2023-07-29T09:17:56;3.03;;;1.27;;
24467;SDS011;12634;50.852;5.676;2023-07-29T09:20:24;2.22;;;0.98;;
24467;SDS011;12634;50.852;5.676;2023-07-29T09:22:52;2.63;;;1.10;;
24467;SDS011;12634;50.852;5.676;2023-07-29T09:25:24;2.65;;;1.20;;
24467;SDS011;12634;50.852;5.676;2023-07-29T09:27:51;1.58;;;0.75;;
24467;SDS011;12634;50.852;5.676;2023-07-29T09:30:19;1.95;;;1.00;;
24467;SDS011;12634;50.852;5.676;2023-07-29T09:32:47;2.17;;;0.95;;
24467;SDS011;12634;50.852;5.676;2023-07-29T09:35:20;1.58;;;0.98;;
24467;SDS011;12634;50.852;5.676;2023-07-29T09:37:47;2.03;;;1.17;;
24467;SDS011;12634;50.852;5.676;2023-07-29T09:40:15;2.97;;;1.10;;
24467;SDS011;12634;50.852;5.676;2023-07-29T09:42:47;1.23;;;0.90;;
24467;SDS011;12634;50.852;5.676;2023-07-29T09:45:19;2.00;;;0.93;;
24467;SDS011;12634;50.852;5.676;2023-07-29T09:47:47;3.20;;;1.00;;
24467;SDS011;12634;50.852;5.676;2023-07-29T09:50:15;4.28;;;1.02;;
24467;SDS011;12634;50.852;5.676;2023-07-29T09:52:44;2.00;;;0.90;;
24467;SDS011;12634;50.852;5.676;2023-07-29T09:55:11;2.08;;;0.98;;
24467;SDS011;12634;50.852;5.676;2023-07-29T09:57:39;1.60;;;0.90;;
24467;SDS011;12634;50.852;5.676;2023-07-29T10:00:07;2.35;;;0.90;;
24467;SDS011;12634;50.852;5.676;2023-07-29T10:02:37;1.65;;;0.82;;
24467;SDS011;12634;50.852;5.676;2023-07-29T10:05:06;1.90;;;1.00;;
24467;SDS011;12634;50.852;5.676;2023-07-29T10:07:34;2.00;;;1.00;;
24467;SDS011;12634;50.852;5.676;2023-07-29T10:10:05;2.20;;;0.90;;
24467;SDS011;12634;50.852;5.676;2023-07-29T10:12:34;3.80;;;1.27;;
24467;SDS011;12634;50.852;5.676;2023-07-29T10:15:03;2.47;;;1.20;;
24467;SDS011;12634;50.852;5.676;2023-07-29T10:17:31;3.80;;;1.23;;
24467;SDS011;12634;50.852;5.676;2023-07-29T10:20:01;2.10;;;1.10;;
24467;SDS011;12634;50.852;5.676;2023-07-29T10:22:32;3.30;;;1.20;;
24467;SDS011;12634;50.852;5.676;2023-07-29T10:25:03;1.77;;;1.02;;
24467;SDS011;12634;50.852;5.676;2023-07-29T10:27:35;2.08;;;1.52;;
24467;SDS011;12634;50.852;5.676;2023-07-29T10:30:10;2.22;;;1.05;;
24467;SDS011;12634;50.852;5.676;2023-07-29T10:32:38;1.60;;;1.00;;
24467;SDS011;12634;50.852;5.676;2023-07-29T10:35:10;3.22;;;1.25;;
24467;SDS011;12634;50.852;5.676;2023-07-29T10:37:37;1.70;;;1.02;;
24467;SDS011;12634;50.852;5.676;2023-07-29T10:40:08;1.42;;;0.85;;
24467;SDS011;12634;50.852;5.676;2023-07-29T10:42:36;1.48;;;0.90;;
24467;SDS011;12634;50.852;5.676;2023-07-29T10:45:19;1.92;;;1.00;;
24467;SDS011;12634;50.852;5.676;2023-07-29T10:47:47;3.63;;;1.35;;
24467;SDS011;12634;50.852;5.676;2023-07-29T10:50:18;1.83;;;0.88;;
24467;SDS011;12634;50.852;5.676;2023-07-29T10:52:49;3.80;;;1.00;;
24467;SDS011;12634;50.852;5.676;2023-07-29T10:55:29;4.40;;;1.00;;
24467;SDS011;12634;50.852;5.676;2023-07-29T10:58:05;2.97;;;1.13;;
24467;SDS011;12634;50.852;5.676;2023-07-29T11:00:34;4.32;;;1.13;;
24467;SDS011;12634;50.852;5.676;2023-07-29T11:03:03;2.47;;;1.05;;
24467;SDS011;12634;50.852;5.676;2023-07-29T11:05:42;1.98;;;1.20;;
24467;SDS011;12634;50.852;5.676;2023-07-29T11:08:21;2.25;;;1.20;;
24467;SDS011;12634;50.852;5.676;2023-07-29T11:11:04;1.75;;;1.30;;
24467;SDS011;12634;50.852;5.676;2023-07-29T11:13:32;3.85;;;1.30;;
24467;SDS011;12634;50.852;5.676;2023-07-29T11:16:01;1.88;;;1.00;;
24467;SDS011;12634;50.852;5.676;2023-07-29T11:18:29;5.55;;;1.25;;
24467;SDS011;12634;50.852;5.676;2023-07-29T11:20:58;3.47;;;1.20;;
24467;SDS011;12634;50.852;5.676;2023-07-29T11:23:27;5.35;;;1.52;;
24467;SDS011;12634;50.852;5.676;2023-07-29T11:25:56;3.28;;;1.10;;
24467;SDS011;12634;50.852;5.676;2023-07-29T11:28:25;2.80;;;1.10;;
24467;SDS011;12634;50.852;5.676;2023-07-29T11:30:53;3.60;;;1.33;;
24467;SDS011;12634;50.852;5.676;2023-07-29T11:33:21;2.67;;;1.15;;
24467;SDS011;12634;50.852;5.676;2023-07-29T11:35:50;3.72;;;1.00;;
24467;SDS011;12634;50.852;5.676;2023-07-29T11:38:18;2.00;;;1.30;;
24467;SDS011;12634;50.852;5.676;2023-07-29T11:40:55;2.95;;;1.10;;
24467;SDS011;12634;50.852;5.676;2023-07-29T11:43:26;3.72;;;1.30;;
24467;SDS011;12634;50.852;5.676;2023-07-29T11:45:53;2.40;;;1.27;;
24467;SDS011;12634;50.852;5.676;2023-07-29T11:48:27;2.30;;;1.20;;
24467;SDS011;12634;50.852;5.676;2023-07-29T11:50:55;2.78;;;1.40;;
24467;SDS011;12634;50.852;5.676;2023-07-29T11:53:25;1.55;;;1.10;;
24467;SDS011;12634;50.852;5.676;2023-07-29T11:55:54;2.10;;;1.30;;
24467;SDS011;12634;50.852;5.676;2023-07-29T11:58:21;3.28;;;1.48;;
24467;SDS011;12634;50.852;5.676;2023-07-29T12:00:49;2.72;;;1.40;;
24467;SDS011;12634;50.852;5.676;2023-07-29T12:03:18;5.13;;;1.60;;
24467;SDS011;12634;50.852;5.676;2023-07-29T12:05:45;4.03;;;1.40;;
24467;SDS011;12634;50.852;5.676;2023-07-29T12:08:13;4.72;;;1.65;;
24467;SDS011;12634;50.852;5.676;2023-07-29T12:10:40;5.13;;;1.55;;
24467;SDS011;12634;50.852;5.676;2023-07-29T12:13:07;2.17;;;1.30;;
24467;SDS011;12634;50.852;5.676;2023-07-29T12:15:37;2.45;;;1.30;;
24467;SDS011;12634;50.852;5.676;2023-07-29T12:18:07;2.42;;;1.52;;
24467;SDS011;12634;50.852;5.676;2023-07-29T12:20:34;1.50;;;1.23;;
24467;SDS011;12634;50.852;5.676;2023-07-29T12:23:03;1.75;;;1.17;;
24467;SDS011;12634;50.852;5.676;2023-07-29T12:25:33;3.15;;;1.42;;
24467;SDS011;12634;50.852;5.676;2023-07-29T12:28:04;2.70;;;1.30;;
24467;SDS011;12634;50.852;5.676;2023-07-29T12:30:31;3.42;;;1.45;;
24467;SDS011;12634;50.852;5.676;2023-07-29T12:32:59;1.60;;;1.10;;
24467;SDS011;12634;50.852;5.676;2023-07-29T12:35:34;5.07;;;1.40;;
24467;SDS011;12634;50.852;5.676;2023-07-29T12:38:02;3.55;;;1.60;;
24467;SDS011;12634;50.852;5.676;2023-07-29T12:40:29;5.05;;;1.58;;
24467;SDS011;12634;50.852;5.676;2023-07-29T12:42:56;2.58;;;1.80;;
24467;SDS011;12634;50.852;5.676;2023-07-29T12:45:24;4.82;;;1.83;;
24467;SDS011;12634;50.852;5.676;2023-07-29T12:47:53;3.53;;;2.08;;
24467;SDS011;12634;50.852;5.676;2023-07-29T12:50:22;2.30;;;1.58;;
24467;SDS011;12634;50.852;5.676;2023-07-29T12:52:50;4.18;;;2.45;;
24467;SDS011;12634;50.852;5.676;2023-07-29T12:55:18;7.95;;;2.25;;
24467;SDS011;12634;50.852;5.676;2023-07-29T12:57:45;3.55;;;1.10;;
24467;SDS011;12634;50.852;5.676;2023-07-29T13:00:12;2.15;;;0.80;;
24467;SDS011;12634;50.852;5.676;2023-07-29T13:02:39;2.47;;;1.02;;
24467;SDS011;12634;50.852;5.676;2023-07-29T13:05:08;3.45;;;1.05;;
24467;SDS011;12634;50.852;5.676;2023-07-29T13:07:37;2.05;;;0.98;;
24467;SDS011;12634;50.852;5.676;2023-07-29T13:10:06;2.53;;;1.20;;
24467;SDS011;12634;50.852;5.676;2023-07-29T13:12:34;1.90;;;1.05;;
24467;SDS011;12634;50.852;5.676;2023-07-29T13:15:01;3.28;;;1.30;;
24467;SDS011;12634;50.852;5.676;2023-07-29T13:17:29;2.20;;;1.45;;
24467;SDS011;12634;50.852;5.676;2023-07-29T13:19:56;3.03;;;1.60;;
24467;SDS011;12634;50.852;5.676;2023-07-29T13:22:23;4.07;;;2.55;;
24467;SDS011;12634;50.852;5.676;2023-07-29T13:24:51;3.05;;;2.15;;
24467;SDS011;12634;50.852;5.676;2023-07-29T13:27:19;5.18;;;2.05;;
24467;SDS011;12634;50.852;5.676;2023-07-29T13:29:47;3.90;;;1.85;;
24467;SDS011;12634;50.852;5.676;2023-07-29T13:32:14;3.95;;;1.42;;
24467;SDS011;12634;50.852;5.676;2023-07-29T13:34:42;3.05;;;1.63;;
24467;SDS011;12634;50.852;5.676;2023-07-29T13:37:09;2.80;;;1.70;;
24467;SDS011;12634;50.852;5.676;2023-07-29T13:39:36;3.58;;;1.60;;
24467;SDS011;12634;50.852;5.676;2023-07-29T13:42:04;5.03;;;1.60;;
24467;SDS011;12634;50.852;5.676;2023-07-29T13:44:33;8.55;;;1.75;;
24467;SDS011;12634;50.852;5.676;2023-07-29T13:47:00;5.47;;;2.80;;
24467;SDS011;12634;50.852;5.676;2023-07-29T13:49:27;3.72;;;2.08;;
24467;SDS011;12634;50.852;5.676;2023-07-29T13:51:54;3.92;;;2.05;;
24467;SDS011;12634;50.852;5.676;2023-07-29T13:54:21;4.55;;;1.90;;
24467;SDS011;12634;50.852;5.676;2023-07-29T13:56:49;4.25;;;1.65;;
24467;SDS011;12634;50.852;5.676;2023-07-29T13:59:16;3.55;;;1.50;;
24467;SDS011;12634;50.852;5.676;2023-07-29T14:01:44;3.65;;;1.50;;
24467;SDS011;12634;50.852;5.676;2023-07-29T14:04:11;2.63;;;1.58;;
24467;SDS011;12634;50.852;5.676;2023-07-29T14:06:39;3.42;;;1.92;;
24467;SDS011;12634;50.852;5.676;2023-07-29T14:09:06;3.72;;;1.85;;
24467;SDS011;12634;50.852;5.676;2023-07-29T14:11:33;3.58;;;1.65;;
24467;SDS011;12634;50.852;5.676;2023-07-29T14:14:01;2.35;;;1.30;;
24467;SDS011;12634;50.852;5.676;2023-07-29T14:16:28;2.67;;;1.10;;
24467;SDS011;12634;50.852;5.676;2023-07-29T14:18:56;4.00;;;1.30;;
24467;SDS011;12634;50.852;5.676;2023-07-29T14:21:23;2.90;;;1.33;;
24467;SDS011;12634;50.852;5.676;2023-07-29T14:23:51;3.88;;;1.40;;
24467;SDS011;12634;50.852;5.676;2023-07-29T14:26:18;2.08;;;1.33;;
24467;SDS011;12634;50.852;5.676;2023-07-29T14:28:45;1.95;;;1.00;;
24467;SDS011;12634;50.852;5.676;2023-07-29T14:31:13;2.30;;;1.30;;
24467;SDS011;12634;50.852;5.676;2023-07-29T14:33:42;3.20;;;1.40;;
24467;SDS011;12634;50.852;5.676;2023-07-29T14:36:10;3.33;;;1.42;;
24467;SDS011;12634;50.852;5.676;2023-07-29T14:38:37;4.13;;;1.27;;
24467;SDS011;12634;50.852;5.676;2023-07-29T14:41:05;4.97;;;1.35;;
24467;SDS011;12634;50.852;5.676;2023-07-29T14:43:32;1.90;;;0.98;;
24467;SDS011;12634;50.852;5.676;2023-07-29T14:46:00;1.67;;;1.00;;
24467;SDS011;12634;50.852;5.676;2023-07-29T14:48:27;1.73;;;1.15;;
24467;SDS011;12634;50.852;5.676;2023-07-29T14:50:54;2.47;;;1.30;;
24467;SDS011;12634;50.852;5.676;2023-07-29T14:53:23;3.85;;;1.52;;
24467;SDS011;12634;50.852;5.676;2023-07-29T14:55:50;2.63;;;1.10;;
24467;SDS011;12634;50.852;5.676;2023-07-29T14:58:17;3.28;;;1.20;;